Time;durP1;ratioP1;P1;durP2;ratioP2;P2;SDS_P1;SDS_P2;PMS_P1;PMS_P2;Temp;Humidity;BMP_temperature;BMP_pressure;BME280_temperature;BME280_humidity;BME280_pressure;Samples;Min_cycle;Max_cycle;Signal;HPM_P1;HPM_P2
2023/09/12 00:00:07;;;;;;;58.37;44.90;;;;;;;;;;5023109;28;20885;-81
2023/09/12 00:02:34;;;;;;;66.23;45.43;;;;;;;;;;5045549;28;20465;-82
2023/09/12 00:05:00;;;;;;;66.90;47.73;;;;;;;;;;5051666;28;20465;-82
2023/09/12 00:07:27;;;;;;;66.53;46.77;;;;;;;;;;5046909;28;20477;-81
2023/09/12 00:09:55;;;;;;;68.47;48.37;;;;;;;;;;5053385;28;20454;-81
2023/09/12 00:12:23;;;;;;;63.00;44.47;;;;;;;;;;5049689;28;20996;-82
2023/09/12 00:14:49;;;;;;;64.00;46.50;;;;;;;;;;5053204;28;20465;-81
2023/09/12 00:17:16;;;;;;;72.27;47.77;;;;;;;;;;5036026;28;20473;-82
2023/09/12 00:19:43;;;;;;;67.50;48.30;;;;;;;;;;5042862;28;20468;-82
2023/09/12 00:22:10;;;;;;;63.47;45.83;;;;;;;;;;5008928;28;20477;-83
2023/09/12 00:24:37;;;;;;;58.73;43.03;;;;;;;;;;5046100;28;20467;-83
2023/09/12 00:27:06;;;;;;;62.40;44.47;;;;;;;;;;5035539;28;20943;-81
2023/09/12 00:29:32;;;;;;;68.23;46.60;;;;;;;;;;5022954;28;20536;-82
2023/09/12 00:31:58;;;;;;;62.80;47.47;;;;;;;;;;5048035;28;20496;-83
2023/09/12 00:34:25;;;;;;;55.77;41.90;;;;;;;;;;5011148;28;20542;-82
2023/09/12 00:36:51;;;;;;;71.97;48.20;;;;;;;;;;5048972;28;20475;-82
2023/09/12 00:39:18;;;;;;;70.20;44.63;;;;;;;;;;5014805;28;20999;-82
2023/09/12 00:41:44;;;;;;;61.33;45.33;;;;;;;;;;5033844;28;20483;-82
2023/09/12 00:44:12;;;;;;;54.20;41.13;;;;;;;;;;5043410;28;20464;-81
2023/09/12 00:46:39;;;;;;;52.87;42.37;;;;;;;;;;5047815;28;20476;-81
2023/09/12 00:49:07;;;;;;;58.37;45.60;;;;;;;;;;5044063;28;20471;-82
2023/09/12 00:51:33;;;;;;;56.80;42.07;;;;;;;;;;5056073;28;20495;-82
2023/09/12 00:54:00;;;;;;;50.53;38.50;;;;;;;;;;5045031;28;20463;-82
2023/09/12 00:56:27;;;;;;;57.27;41.77;;;;;;;;;;5039695;28;20505;-82
2023/09/12 00:58:53;;;;;;;61.67;43.37;;;;;;;;;;5034854;28;20516;-82
2023/09/12 01:01:21;;;;;;;62.70;44.57;;;;;;;;;;5054009;28;20481;-82
2023/09/12 01:03:48;;;;;;;58.50;43.90;;;;;;;;;;5037238;28;20843;-82
2023/09/12 01:06:15;;;;;;;51.30;41.03;;;;;;;;;;5002429;28;20543;-82
2023/09/12 01:08:42;;;;;;;59.87;43.37;;;;;;;;;;5039531;28;20480;-82
2023/09/12 01:11:09;;;;;;;58.17;40.77;;;;;;;;;;5016816;28;20452;-82
2023/09/12 01:13:35;;;;;;;55.50;43.00;;;;;;;;;;5053330;28;20503;-82
2023/09/12 01:16:01;;;;;;;60.03;44.77;;;;;;;;;;5037235;28;20469;-82
2023/09/12 01:18:29;;;;;;;52.53;42.17;;;;;;;;;;5029395;28;20470;-82
2023/09/12 01:21:07;;;;;;;64.53;45.80;;;;;;;;;;5053812;28;20464;-81
2023/09/12 01:23:44;;;;;;;60.47;45.40;;;;;;;;;;5046187;28;20463;-82
2023/09/12 01:26:24;;;;;;;57.97;41.53;;;;;;;;;;5018702;28;20460;-82
2023/09/12 01:28:55;;;;;;;52.67;41.47;;;;;;;;;;5040979;28;20490;-82
2023/09/12 01:31:23;;;;;;;58.93;45.37;;;;;;;;;;5032979;28;20469;-82
2023/09/12 01:33:50;;;;;;;59.40;44.70;;;;;;;;;;5051472;28;21346;-82
2023/09/12 01:36:16;;;;;;;55.20;46.37;;;;;;;;;;5051833;28;20468;-83
2023/09/12 01:38:43;;;;;;;64.80;44.60;;;;;;;;;;5048716;28;20460;-82
2023/09/12 01:41:09;;;;;;;66.83;46.13;;;;;;;;;;5059481;28;20493;-83
2023/09/12 01:43:39;;;;;;;55.37;42.67;;;;;;;;;;4998249;28;20543;-82
2023/09/12 01:46:07;;;;;;;70.90;48.97;;;;;;;;;;5033826;28;20468;-82
2023/09/12 01:48:35;;;;;;;63.43;47.97;;;;;;;;;;5034913;28;20495;-82
2023/09/12 01:51:02;;;;;;;66.50;48.23;;;;;;;;;;5036526;28;20475;-81
2023/09/12 01:53:29;;;;;;;67.23;49.70;;;;;;;;;;5055295;28;21007;-82
2023/09/12 01:55:57;;;;;;;71.03;50.90;;;;;;;;;;5037280;28;20475;-82
2023/09/12 01:58:26;;;;;;;66.00;49.30;;;;;;;;;;5046801;28;20477;-82
2023/09/12 02:00:52;;;;;;;69.97;50.27;;;;;;;;;;5025399;28;20482;-82
2023/09/12 02:03:20;;;;;;;69.37;50.00;;;;;;;;;;5042612;28;20476;-81
2023/09/12 02:05:45;;;;;;;69.70;50.27;;;;;;;;;;5058847;28;20481;-82
2023/09/12 02:08:13;;;;;;;58.30;45.03;;;;;;;;;;5051986;28;20479;-81
2023/09/12 02:10:39;;;;;;;60.03;45.70;;;;;;;;;;5020448;28;20233;-82
2023/09/12 02:13:05;;;;;;;56.37;44.27;;;;;;;;;;5041610;28;20499;-82
2023/09/12 02:15:32;;;;;;;62.40;44.97;;;;;;;;;;5038057;28;20479;-81
2023/09/12 02:17:59;;;;;;;67.83;50.03;;;;;;;;;;5048212;28;20472;-83
2023/09/12 02:20:27;;;;;;;65.00;51.27;;;;;;;;;;5046427;28;20464;-82
2023/09/12 02:22:53;;;;;;;65.07;49.60;;;;;;;;;;5036741;28;20495;-81
2023/09/12 02:25:20;;;;;;;74.83;50.37;;;;;;;;;;5044144;28;20466;-82
2023/09/12 02:27:46;;;;;;;67.77;51.40;;;;;;;;;;5005536;28;20549;-82
2023/09/12 02:30:13;;;;;;;66.07;50.67;;;;;;;;;;5047192;28;20459;-81
2023/09/12 02:32:39;;;;;;;70.17;50.53;;;;;;;;;;5062326;28;20495;-82
2023/09/12 02:35:06;;;;;;;65.73;48.87;;;;;;;;;;5056861;28;20459;-81
2023/09/12 02:37:34;;;;;;;78.47;50.67;;;;;;;;;;5045370;28;20502;-82
2023/09/12 02:40:00;;;;;;;69.40;51.40;;;;;;;;;;5038795;28;20477;-81
2023/09/12 02:42:27;;;;;;;68.43;50.47;;;;;;;;;;5034303;28;20489;-82
2023/09/12 02:44:54;;;;;;;60.73;46.50;;;;;;;;;;5018258;28;20560;-82
2023/09/12 02:47:20;;;;;;;62.10;47.37;;;;;;;;;;5030843;28;20503;-81
2023/09/12 02:49:46;;;;;;;65.10;47.10;;;;;;;;;;5052134;28;20460;-81
2023/09/12 02:52:13;;;;;;;59.80;46.07;;;;;;;;;;5051401;28;20481;-81
2023/09/12 02:54:41;;;;;;;61.30;46.37;;;;;;;;;;5031112;28;20474;-81
2023/09/12 02:57:07;;;;;;;68.87;52.03;;;;;;;;;;5038558;28;20990;-83
2023/09/12 02:59:34;;;;;;;69.43;50.03;;;;;;;;;;5053497;28;21038;-82
2023/09/12 03:02:01;;;;;;;69.63;51.80;;;;;;;;;;5051745;28;20994;-82
2023/09/12 03:04:28;;;;;;;67.20;51.27;;;;;;;;;;5035264;28;20466;-81
2023/09/12 03:06:54;;;;;;;60.80;48.90;;;;;;;;;;5044052;28;20471;-81
2023/09/12 03:09:22;;;;;;;62.73;46.40;;;;;;;;;;5048354;28;20463;-81
2023/09/12 03:11:50;;;;;;;64.77;49.70;;;;;;;;;;5035026;28;20474;-82
2023/09/12 03:14:16;;;;;;;58.83;47.63;;;;;;;;;;5029901;28;20470;-81
2023/09/12 03:16:43;;;;;;;68.07;49.00;;;;;;;;;;5035013;28;20468;-82
2023/09/12 03:19:10;;;;;;;65.37;50.53;;;;;;;;;;5012656;28;20457;-81
2023/09/12 03:21:38;;;;;;;71.30;50.57;;;;;;;;;;5029394;28;20979;-81
2023/09/12 03:24:05;;;;;;;88.63;55.60;;;;;;;;;;5035798;28;20475;-81
2023/09/12 03:26:31;;;;;;;61.10;50.23;;;;;;;;;;5038454;28;20967;-82
2023/09/12 03:28:59;;;;;;;69.43;51.97;;;;;;;;;;5053074;28;20518;-82
2023/09/12 03:31:25;;;;;;;70.93;50.70;;;;;;;;;;5052440;28;20506;-81
2023/09/12 03:33:52;;;;;;;69.87;50.57;;;;;;;;;;5033794;28;20500;-81
2023/09/12 03:36:18;;;;;;;65.50;48.13;;;;;;;;;;5045091;28;20478;-81
2023/09/12 03:38:45;;;;;;;68.03;52.03;;;;;;;;;;5053632;28;20467;-81
2023/09/12 03:41:12;;;;;;;58.27;46.00;;;;;;;;;;5048274;28;20466;-81
2023/09/12 03:43:38;;;;;;;65.33;49.27;;;;;;;;;;5044784;28;20492;-82
2023/09/12 03:46:06;;;;;;;66.70;49.93;;;;;;;;;;5038898;28;20495;-82
2023/09/12 03:48:33;;;;;;;66.00;50.07;;;;;;;;;;5030509;28;20475;-81
2023/09/12 03:50:59;;;;;;;61.80;46.43;;;;;;;;;;5043112;28;20465;-81
2023/09/12 03:53:27;;;;;;;65.37;48.80;;;;;;;;;;5034392;28;20591;-81
2023/09/12 03:55:54;;;;;;;65.70;47.67;;;;;;;;;;5039740;28;20559;-80
2023/09/12 03:58:21;;;;;;;62.87;50.67;;;;;;;;;;5049170;28;21402;-81
2023/09/12 04:00:47;;;;;;;64.23;47.13;;;;;;;;;;5049593;28;20997;-81
2023/09/12 04:03:16;;;;;;;60.47;47.10;;;;;;;;;;5022110;28;20537;-81
2023/09/12 04:05:42;;;;;;;59.77;46.20;;;;;;;;;;5054252;28;20482;-81
2023/09/12 04:08:08;;;;;;;59.13;45.43;;;;;;;;;;5053454;28;20513;-81
2023/09/12 04:10:35;;;;;;;61.00;46.90;;;;;;;;;;5046462;28;20478;-80
2023/09/12 04:13:01;;;;;;;55.77;44.20;;;;;;;;;;5031035;28;20511;-81
2023/09/12 04:15:28;;;;;;;60.20;46.10;;;;;;;;;;5049139;28;21068;-81
2023/09/12 04:17:54;;;;;;;68.10;47.23;;;;;;;;;;5046619;28;20475;-82
2023/09/12 04:20:22;;;;;;;53.63;42.57;;;;;;;;;;5028313;28;20481;-81
2023/09/12 04:22:48;;;;;;;52.90;41.83;;;;;;;;;;5041794;28;20490;-81
2023/09/12 04:25:15;;;;;;;57.47;43.67;;;;;;;;;;5025176;28;20470;-81
2023/09/12 04:27:42;;;;;;;47.13;37.73;;;;;;;;;;5039994;28;20565;-81
2023/09/12 04:30:08;;;;;;;50.60;42.53;;;;;;;;;;5032646;28;20981;-81
2023/09/12 04:32:35;;;;;;;54.23;45.73;;;;;;;;;;5046272;28;20487;-80
2023/09/12 04:35:01;;;;;;;53.83;43.93;;;;;;;;;;5050655;28;20504;-80
2023/09/12 04:37:29;;;;;;;54.70;41.90;;;;;;;;;;5030528;28;20514;-81
2023/09/12 04:39:56;;;;;;;49.20;39.10;;;;;;;;;;5035904;28;20469;-81
2023/09/12 04:42:22;;;;;;;49.33;39.93;;;;;;;;;;5043450;28;20583;-81
2023/09/12 04:44:49;;;;;;;45.73;37.50;;;;;;;;;;5040349;28;20466;-81
2023/09/12 04:47:17;;;;;;;49.40;40.83;;;;;;;;;;5057822;28;20467;-81
2023/09/12 04:49:44;;;;;;;54.00;40.73;;;;;;;;;;5043410;28;20518;-81
2023/09/12 04:52:10;;;;;;;49.27;42.13;;;;;;;;;;5045276;28;20476;-81
2023/09/12 04:54:38;;;;;;;59.43;44.20;;;;;;;;;;5051895;28;21140;-81
2023/09/12 04:57:04;;;;;;;49.30;41.20;;;;;;;;;;5033252;28;20479;-81
2023/09/12 04:59:32;;;;;;;53.87;40.30;;;;;;;;;;5031541;28;20461;-82
2023/09/12 05:01:59;;;;;;;49.53;42.00;;;;;;;;;;5045830;28;20479;-81
2023/09/12 05:04:25;;;;;;;56.83;41.27;;;;;;;;;;5008596;28;20471;-81
2023/09/12 05:06:53;;;;;;;56.43;42.80;;;;;;;;;;5052588;28;20509;-81
2023/09/12 05:09:21;;;;;;;46.70;38.77;;;;;;;;;;5044721;28;20954;-81
2023/09/12 05:11:49;;;;;;;49.03;39.53;;;;;;;;;;5038677;28;20477;-81
2023/09/12 05:14:16;;;;;;;52.73;41.00;;;;;;;;;;5045253;28;20480;-81
2023/09/12 05:16:42;;;;;;;51.83;40.20;;;;;;;;;;5037624;28;20484;-81
2023/09/12 05:19:09;;;;;;;52.20;39.97;;;;;;;;;;5018568;28;21671;-81
2023/09/12 05:21:35;;;;;;;57.40;43.80;;;;;;;;;;5048619;28;20996;-81
2023/09/12 05:24:02;;;;;;;54.23;41.33;;;;;;;;;;5050488;28;20473;-82
2023/09/12 05:26:28;;;;;;;57.23;43.40;;;;;;;;;;5043769;28;20469;-81
2023/09/12 05:28:59;;;;;;;53.70;41.20;;;;;;;;;;5047890;28;20483;-81
2023/09/12 05:31:25;;;;;;;49.10;41.20;;;;;;;;;;5040594;28;20467;-81
2023/09/12 05:33:52;;;;;;;58.30;43.93;;;;;;;;;;5032360;28;20492;-81
2023/09/12 05:36:19;;;;;;;56.77;44.23;;;;;;;;;;5049666;28;21320;-82
2023/09/12 05:38:45;;;;;;;57.23;42.57;;;;;;;;;;5057811;28;20501;-81
2023/09/12 05:41:12;;;;;;;48.73;38.97;;;;;;;;;;5037423;28;20455;-81
2023/09/12 05:43:38;;;;;;;54.30;42.67;;;;;;;;;;5051502;28;20464;-81
2023/09/12 05:46:06;;;;;;;46.87;37.60;;;;;;;;;;5032808;28;20474;-81
2023/09/12 05:48:32;;;;;;;47.03;38.20;;;;;;;;;;5053096;28;20479;-81
2023/09/12 05:50:58;;;;;;;52.23;39.83;;;;;;;;;;5057747;28;20524;-81
2023/09/12 05:53:26;;;;;;;49.77;39.60;;;;;;;;;;5056706;28;20496;-81
2023/09/12 05:55:53;;;;;;;54.10;39.80;;;;;;;;;;5051415;28;20463;-81
2023/09/12 05:58:22;;;;;;;48.47;39.07;;;;;;;;;;5038226;28;20484;-81
2023/09/12 06:00:49;;;;;;;53.63;42.00;;;;;;;;;;5039566;28;20469;-81
2023/09/12 06:03:16;;;;;;;49.07;39.93;;;;;;;;;;5040453;28;20470;-81
2023/09/12 06:05:43;;;;;;;54.47;43.00;;;;;;;;;;5051886;28;20463;-81
2023/09/12 06:08:09;;;;;;;53.40;42.10;;;;;;;;;;5044422;28;21059;-81
2023/09/12 06:10:36;;;;;;;51.77;41.93;;;;;;;;;;5043260;28;20455;-81
2023/09/12 06:13:02;;;;;;;52.83;40.67;;;;;;;;;;5037729;28;20987;-81
2023/09/12 06:15:29;;;;;;;50.27;39.53;;;;;;;;;;5034931;28;20467;-81
2023/09/12 06:17:55;;;;;;;66.93;47.97;;;;;;;;;;5026610;28;20875;-81
2023/09/12 06:20:23;;;;;;;62.23;43.70;;;;;;;;;;5048479;28;20466;-81
2023/09/12 06:22:50;;;;;;;71.90;49.63;;;;;;;;;;5039573;28;20492;-81
2023/09/12 06:25:17;;;;;;;69.60;49.93;;;;;;;;;;5016437;28;20558;-81
2023/09/12 06:27:43;;;;;;;71.00;49.50;;;;;;;;;;5044397;28;20502;-81
2023/09/12 06:30:10;;;;;;;75.77;47.77;;;;;;;;;;5041753;28;20475;-81
2023/09/12 06:32:36;;;;;;;68.20;50.00;;;;;;;;;;5045508;28;20543;-81
2023/09/12 06:35:03;;;;;;;66.67;46.77;;;;;;;;;;5031507;28;20474;-81
2023/09/12 06:37:30;;;;;;;80.23;50.57;;;;;;;;;;5051663;28;20479;-81
2023/09/12 06:39:57;;;;;;;66.97;50.20;;;;;;;;;;5055629;28;20463;-81
2023/09/12 06:42:25;;;;;;;81.97;53.57;;;;;;;;;;5043187;28;21000;-81
2023/09/12 06:44:51;;;;;;;70.10;49.90;;;;;;;;;;5029026;28;20476;-81
2023/09/12 06:47:18;;;;;;;76.47;53.00;;;;;;;;;;5050443;28;20467;-81
2023/09/12 06:49:44;;;;;;;73.50;48.40;;;;;;;;;;5041140;28;20464;-81
2023/09/12 06:52:13;;;;;;;76.17;50.93;;;;;;;;;;5053061;28;20459;-81
2023/09/12 06:54:41;;;;;;;72.87;51.03;;;;;;;;;;5042847;28;20556;-81
2023/09/12 06:57:08;;;;;;;82.50;51.93;;;;;;;;;;5032584;28;20501;-81
2023/09/12 06:59:34;;;;;;;78.50;52.80;;;;;;;;;;5052031;28;20483;-80
2023/09/12 07:02:00;;;;;;;77.30;51.03;;;;;;;;;;5026126;28;20489;-81
2023/09/12 07:04:27;;;;;;;73.40;49.13;;;;;;;;;;5043177;28;20482;-81
2023/09/12 07:06:53;;;;;;;68.90;50.10;;;;;;;;;;5050147;28;20469;-81
2023/09/12 07:09:19;;;;;;;75.50;50.50;;;;;;;;;;5048870;28;20472;-81
2023/09/12 07:11:48;;;;;;;75.50;53.30;;;;;;;;;;5042844;28;20471;-81
2023/09/12 07:14:15;;;;;;;69.07;50.57;;;;;;;;;;5046316;28;20818;-82
2023/09/12 07:16:41;;;;;;;67.07;47.47;;;;;;;;;;5031122;28;20565;-81
2023/09/12 07:19:07;;;;;;;59.90;44.23;;;;;;;;;;5036488;28;20993;-81
2023/09/12 07:21:34;;;;;;;56.50;43.17;;;;;;;;;;5021833;28;20453;-81
2023/09/12 07:24:01;;;;;;;64.20;46.60;;;;;;;;;;5045907;28;20967;-81
2023/09/12 07:26:27;;;;;;;65.80;47.00;;;;;;;;;;5037350;28;20800;-81
2023/09/12 07:28:55;;;;;;;60.27;46.53;;;;;;;;;;5047051;28;20484;-81
2023/09/12 07:31:21;;;;;;;60.03;42.70;;;;;;;;;;5058370;28;20969;-81
2023/09/12 07:33:48;;;;;;;59.13;45.20;;;;;;;;;;5057930;28;20505;-81
2023/09/12 07:36:14;;;;;;;62.93;47.17;;;;;;;;;;5039230;28;20468;-81
2023/09/12 07:38:42;;;;;;;56.40;43.37;;;;;;;;;;5040831;28;20474;-81
2023/09/12 07:41:08;;;;;;;57.63;44.00;;;;;;;;;;5026295;28;20461;-81
2023/09/12 07:43:34;;;;;;;61.77;42.80;;;;;;;;;;5053466;28;20458;-81
2023/09/12 07:46:02;;;;;;;57.17;42.40;;;;;;;;;;5048657;28;20506;-82
2023/09/12 07:48:28;;;;;;;57.50;44.20;;;;;;;;;;5058709;28;20491;-81
2023/09/12 07:50:55;;;;;;;63.53;45.67;;;;;;;;;;5042962;28;20486;-82
2023/09/12 07:53:22;;;;;;;62.53;46.03;;;;;;;;;;5036205;28;20972;-82
2023/09/12 07:55:50;;;;;;;62.87;47.80;;;;;;;;;;5045286;28;21061;-81
2023/09/12 07:58:18;;;;;;;61.80;44.80;;;;;;;;;;5026421;28;20528;-81
2023/09/12 08:00:44;;;;;;;54.67;41.93;;;;;;;;;;5046111;28;20472;-81
2023/09/12 08:03:12;;;;;;;60.43;45.07;;;;;;;;;;5037076;28;20871;-81
2023/09/12 08:05:39;;;;;;;58.07;44.27;;;;;;;;;;5057044;28;21063;-81
2023/09/12 08:08:06;;;;;;;61.83;44.13;;;;;;;;;;5053004;28;20464;-81
2023/09/12 08:10:32;;;;;;;57.20;44.60;;;;;;;;;;5047871;28;20469;-81
2023/09/12 08:12:59;;;;;;;55.43;43.77;;;;;;;;;;5056423;28;20485;-81
2023/09/12 08:15:25;;;;;;;51.80;41.97;;;;;;;;;;5046283;28;20466;-81
2023/09/12 08:17:53;;;;;;;58.63;42.67;;;;;;;;;;5037770;28;20473;-81
2023/09/12 08:20:22;;;;;;;54.63;43.40;;;;;;;;;;5044328;28;20477;-81
2023/09/12 08:22:48;;;;;;;49.67;38.80;;;;;;;;;;5035362;28;20591;-81
2023/09/12 08:25:16;;;;;;;62.83;46.90;;;;;;;;;;5048155;28;20500;-81
2023/09/12 08:27:43;;;;;;;56.13;42.47;;;;;;;;;;5056535;28;20481;-81
2023/09/12 08:30:10;;;;;;;60.10;45.70;;;;;;;;;;5047420;28;21025;-81
2023/09/12 08:32:39;;;;;;;53.40;42.57;;;;;;;;;;5041911;28;20514;-81
2023/09/12 08:35:06;;;;;;;52.87;39.23;;;;;;;;;;5034476;28;20483;-81
2023/09/12 08:37:33;;;;;;;49.13;40.70;;;;;;;;;;5039986;28;20504;-81
2023/09/12 08:40:00;;;;;;;55.10;41.67;;;;;;;;;;5039856;28;20469;-81
2023/09/12 08:42:27;;;;;;;56.83;43.87;;;;;;;;;;5043930;28;20479;-82
2023/09/12 08:44:54;;;;;;;57.17;45.70;;;;;;;;;;5035875;28;20511;-81
2023/09/12 08:47:22;;;;;;;65.03;44.00;;;;;;;;;;5037361;28;20485;-81
2023/09/12 08:49:48;;;;;;;53.80;41.33;;;;;;;;;;5030576;28;20465;-83
2023/09/12 08:52:16;;;;;;;58.17;42.10;;;;;;;;;;5032814;28;20487;-81
2023/09/12 08:54:44;;;;;;;55.10;44.97;;;;;;;;;;5039636;28;20501;-81
2023/09/12 08:57:11;;;;;;;57.80;42.73;;;;;;;;;;5043551;28;20472;-81
2023/09/12 08:59:38;;;;;;;52.60;42.30;;;;;;;;;;5055901;28;20468;-81
2023/09/12 09:02:06;;;;;;;52.13;40.63;;;;;;;;;;5055624;28;20852;-81
2023/09/12 09:04:34;;;;;;;53.37;42.10;;;;;;;;;;5050852;28;20460;-81
2023/09/12 09:07:04;;;;;;;48.33;39.30;;;;;;;;;;5037416;28;20923;-81
2023/09/12 09:09:31;;;;;;;46.97;36.20;;;;;;;;;;5023640;28;20463;-81
2023/09/12 09:11:59;;;;;;;51.87;38.67;;;;;;;;;;5019638;28;20465;-81
2023/09/12 09:14:25;;;;;;;47.63;38.60;;;;;;;;;;5030041;28;20484;-81
2023/09/12 09:16:51;;;;;;;50.17;38.93;;;;;;;;;;5045424;28;20966;-81
2023/09/12 09:19:19;;;;;;;53.40;40.67;;;;;;;;;;5030897;28;21524;-81
2023/09/12 09:21:46;;;;;;;51.60;39.20;;;;;;;;;;5041301;28;21000;-81
2023/09/12 09:24:15;;;;;;;55.70;40.63;;;;;;;;;;5049692;28;20460;-81
2023/09/12 09:26:45;;;;;;;48.87;39.57;;;;;;;;;;5036180;28;20895;-81
2023/09/12 09:29:14;;;;;;;50.97;38.50;;;;;;;;;;5032330;28;20515;-82
2023/09/12 09:31:41;;;;;;;53.20;38.37;;;;;;;;;;5039442;28;20475;-81
2023/09/12 09:34:11;;;;;;;51.30;40.00;;;;;;;;;;5025306;28;20480;-81
2023/09/12 09:36:37;;;;;;;47.97;36.80;;;;;;;;;;5046457;28;20477;-81
2023/09/12 09:39:05;;;;;;;49.20;38.20;;;;;;;;;;5047943;28;20502;-81
2023/09/12 09:41:32;;;;;;;50.40;38.87;;;;;;;;;;5039700;28;20477;-81
2023/09/12 09:43:59;;;;;;;48.53;37.30;;;;;;;;;;5041461;28;21058;-81
2023/09/12 09:46:27;;;;;;;49.67;39.20;;;;;;;;;;5034277;28;21014;-81
2023/09/12 09:48:54;;;;;;;46.53;37.30;;;;;;;;;;5037105;28;20855;-81
2023/09/12 09:51:20;;;;;;;47.57;39.03;;;;;;;;;;5041892;28;21700;-81
2023/09/12 09:53:47;;;;;;;50.70;41.67;;;;;;;;;;5039863;28;20475;-81
2023/09/12 09:56:14;;;;;;;53.10;41.00;;;;;;;;;;5048156;28;20468;-82
2023/09/12 09:58:47;;;;;;;49.57;39.30;;;;;;;;;;5052607;28;20472;-81
2023/09/12 10:01:14;;;;;;;58.87;41.03;;;;;;;;;;5044621;28;20461;-81
2023/09/12 10:03:42;;;;;;;49.20;39.57;;;;;;;;;;5033905;28;20826;-81
2023/09/12 10:06:09;;;;;;;53.13;43.60;;;;;;;;;;5033877;28;20475;-81
2023/09/12 10:08:36;;;;;;;53.60;44.10;;;;;;;;;;5046273;28;20474;-81
2023/09/12 10:11:03;;;;;;;56.77;41.30;;;;;;;;;;5049430;28;20463;-81
2023/09/12 10:13:32;;;;;;;55.63;44.03;;;;;;;;;;5028833;28;20479;-82
2023/09/12 10:16:01;;;;;;;53.30;41.80;;;;;;;;;;5030783;28;20479;-81
2023/09/12 10:18:30;;;;;;;62.03;41.40;;;;;;;;;;5038918;28;20502;-81
2023/09/12 10:21:04;;;;;;;48.17;38.27;;;;;;;;;;5043831;28;20464;-81
2023/09/12 10:23:36;;;;;;;49.70;41.10;;;;;;;;;;5025516;28;20890;-81
2023/09/12 10:26:03;;;;;;;50.33;39.47;;;;;;;;;;5040596;28;20551;-81
2023/09/12 10:28:30;;;;;;;52.30;40.93;;;;;;;;;;5048466;28;20468;-81
2023/09/12 10:31:01;;;;;;;50.80;38.50;;;;;;;;;;5048881;28;20983;-81
2023/09/12 10:33:31;;;;;;;51.73;39.47;;;;;;;;;;5035927;28;20974;-81
2023/09/12 10:35:59;;;;;;;49.43;40.93;;;;;;;;;;5045830;28;20570;-81
2023/09/12 10:38:27;;;;;;;48.90;38.90;;;;;;;;;;5057392;28;20485;-81
2023/09/12 10:40:55;;;;;;;49.27;37.87;;;;;;;;;;5030570;28;20477;-80
2023/09/12 10:43:22;;;;;;;49.70;37.10;;;;;;;;;;5049888;28;20466;-81
2023/09/12 10:45:49;;;;;;;48.33;36.40;;;;;;;;;;5045903;28;21030;-81
2023/09/12 10:48:16;;;;;;;43.90;37.40;;;;;;;;;;5043660;28;20479;-81
2023/09/12 10:50:42;;;;;;;48.10;38.10;;;;;;;;;;5040063;28;20469;-81
2023/09/12 10:53:12;;;;;;;45.40;36.50;;;;;;;;;;5049074;28;20476;-81
2023/09/12 10:55:38;;;;;;;47.23;37.47;;;;;;;;;;5050574;28;20557;-81
2023/09/12 10:58:06;;;;;;;49.87;36.67;;;;;;;;;;5018257;28;20472;-81
2023/09/12 11:00:34;;;;;;;44.37;36.60;;;;;;;;;;5044372;28;20481;-81
2023/09/12 11:03:01;;;;;;;42.83;36.00;;;;;;;;;;5033746;28;20845;-81
2023/09/12 11:05:37;;;;;;;44.90;34.40;;;;;;;;;;5036368;28;20478;-81
2023/09/12 11:08:04;;;;;;;38.67;33.50;;;;;;;;;;5049842;28;20479;-81
2023/09/12 11:10:32;;;;;;;38.00;32.23;;;;;;;;;;5043275;28;20476;-81
2023/09/12 11:12:59;;;;;;;39.80;32.03;;;;;;;;;;5043614;28;20483;-81
2023/09/12 11:15:26;;;;;;;42.07;33.57;;;;;;;;;;5042159;28;20487;-81
2023/09/12 11:18:01;;;;;;;41.87;34.87;;;;;;;;;;5031939;28;20472;-82
2023/09/12 11:20:27;;;;;;;39.00;31.97;;;;;;;;;;5015532;28;20906;-81
2023/09/12 11:22:54;;;;;;;40.20;33.37;;;;;;;;;;5043315;28;20922;-81
2023/09/12 11:25:22;;;;;;;46.30;36.13;;;;;;;;;;5042056;28;21590;-81
2023/09/12 11:28:05;;;;;;;41.33;32.63;;;;;;;;;;5046002;28;20475;-81
2023/09/12 11:30:32;;;;;;;36.87;30.77;;;;;;;;;;5044396;28;20459;-81
2023/09/12 11:32:59;;;;;;;34.20;28.07;;;;;;;;;;5058949;28;20503;-81
2023/09/12 11:35:26;;;;;;;36.13;29.90;;;;;;;;;;5052437;28;20472;-81
2023/09/12 11:37:54;;;;;;;33.93;29.37;;;;;;;;;;5052315;28;20478;-81
2023/09/12 11:40:23;;;;;;;35.83;29.27;;;;;;;;;;5037048;28;20649;-81
2023/09/12 11:42:50;;;;;;;34.77;27.90;;;;;;;;;;5019488;28;20544;-81
2023/09/12 11:45:19;;;;;;;30.47;24.03;;;;;;;;;;5040103;28;20479;-81
2023/09/12 11:47:46;;;;;;;26.43;23.07;;;;;;;;;;5037184;28;20869;-81
2023/09/12 11:50:26;;;;;;;24.70;20.90;;;;;;;;;;5041588;28;20478;-81
2023/09/12 11:52:59;;;;;;;28.97;23.97;;;;;;;;;;5052917;28;20476;-81
2023/09/12 11:55:26;;;;;;;29.50;26.30;;;;;;;;;;5035397;28;20484;-81
2023/09/12 11:57:55;;;;;;;32.03;25.77;;;;;;;;;;5055164;28;20524;-81
2023/09/12 12:00:26;;;;;;;32.77;25.07;;;;;;;;;;5046129;28;20476;-82
2023/09/12 12:02:52;;;;;;;25.43;22.73;;;;;;;;;;5041442;28;20555;-81
2023/09/12 12:05:19;;;;;;;25.00;22.17;;;;;;;;;;5048179;28;20467;-81
2023/09/12 12:07:47;;;;;;;26.20;22.27;;;;;;;;;;5045234;28;20495;-81
2023/09/12 12:10:14;;;;;;;27.07;23.13;;;;;;;;;;5040042;28;20467;-81
2023/09/12 12:12:42;;;;;;;27.47;23.13;;;;;;;;;;5043823;28;20522;-82
2023/09/12 12:15:10;;;;;;;28.20;23.93;;;;;;;;;;5019361;28;20485;-81
2023/09/12 12:17:40;;;;;;;33.60;25.00;;;;;;;;;;5035431;28;20471;-81
2023/09/12 12:20:09;;;;;;;27.70;22.17;;;;;;;;;;5045253;28;20469;-81
2023/09/12 12:22:36;;;;;;;30.37;25.57;;;;;;;;;;5047781;28;20481;-81
2023/09/12 12:25:06;;;;;;;29.33;24.90;;;;;;;;;;5055862;28;20561;-81
2023/09/12 12:27:33;;;;;;;31.33;26.13;;;;;;;;;;5054667;28;20990;-81
2023/09/12 12:29:59;;;;;;;26.90;22.83;;;;;;;;;;5043967;28;20468;-81
2023/09/12 12:32:25;;;;;;;24.10;19.20;;;;;;;;;;5050002;28;20475;-81
2023/09/12 12:34:54;;;;;;;27.33;23.63;;;;;;;;;;5046642;28;20482;-81
2023/09/12 12:37:21;;;;;;;26.87;23.10;;;;;;;;;;5042936;28;20472;-81
2023/09/12 12:39:47;;;;;;;26.10;22.70;;;;;;;;;;5035989;28;21007;-81
2023/09/12 12:42:14;;;;;;;31.70;26.17;;;;;;;;;;5050024;28;20491;-81
2023/09/12 12:44:41;;;;;;;31.17;24.40;;;;;;;;;;5045422;28;20513;-81
2023/09/12 12:47:09;;;;;;;29.90;24.87;;;;;;;;;;5056331;28;21037;-82
2023/09/12 12:49:39;;;;;;;27.20;24.30;;;;;;;;;;5031184;28;20469;-82
2023/09/12 12:52:10;;;;;;;31.17;27.73;;;;;;;;;;5043055;28;20522;-82
2023/09/12 12:54:36;;;;;;;31.53;25.60;;;;;;;;;;5037861;28;20528;-81
2023/09/12 12:57:03;;;;;;;28.90;23.50;;;;;;;;;;5046958;28;20494;-81
2023/09/12 12:59:34;;;;;;;30.83;25.53;;;;;;;;;;5042969;28;20468;-81
2023/09/12 13:02:00;;;;;;;28.00;24.20;;;;;;;;;;5027211;28;20477;-81
2023/09/12 13:04:27;;;;;;;26.10;23.30;;;;;;;;;;5031349;28;20473;-81
2023/09/12 13:06:53;;;;;;;30.27;24.77;;;;;;;;;;5046863;28;20475;-81
2023/09/12 13:09:21;;;;;;;25.77;22.80;;;;;;;;;;5060060;28;20481;-81
2023/09/12 13:11:47;;;;;;;29.50;24.43;;;;;;;;;;5063298;28;20469;-81
2023/09/12 13:14:14;;;;;;;29.50;24.90;;;;;;;;;;5042082;28;20464;-81
2023/09/12 13:16:40;;;;;;;27.07;21.67;;;;;;;;;;5042151;28;20506;-81
2023/09/12 13:19:07;;;;;;;25.57;22.90;;;;;;;;;;5051924;28;20508;-81
2023/09/12 13:21:33;;;;;;;22.87;19.33;;;;;;;;;;5060708;28;20467;-81
2023/09/12 13:24:00;;;;;;;25.33;19.80;;;;;;;;;;5051746;28;20474;-81
2023/09/12 13:26:28;;;;;;;23.20;20.73;;;;;;;;;;5033381;28;20481;-81
2023/09/12 13:28:55;;;;;;;22.53;20.30;;;;;;;;;;5039614;28;20480;-81
2023/09/12 13:31:21;;;;;;;23.53;21.07;;;;;;;;;;5045908;28;20477;-80
2023/09/12 13:33:47;;;;;;;23.57;21.23;;;;;;;;;;5044741;28;20478;-81
2023/09/12 13:36:14;;;;;;;23.20;20.97;;;;;;;;;;5058939;28;20482;-81
2023/09/12 13:38:41;;;;;;;21.87;19.67;;;;;;;;;;5051068;28;20476;-81
2023/09/12 13:41:08;;;;;;;27.50;22.47;;;;;;;;;;5064144;28;20467;-81
2023/09/12 13:43:36;;;;;;;23.10;20.57;;;;;;;;;;5042352;28;20465;-81
2023/09/12 13:46:02;;;;;;;25.03;22.47;;;;;;;;;;5047490;28;20471;-81
2023/09/12 13:48:28;;;;;;;26.53;23.83;;;;;;;;;;5034838;28;20470;-81
2023/09/12 13:50:54;;;;;;;26.30;23.73;;;;;;;;;;5042790;28;20555;-82
2023/09/12 13:53:21;;;;;;;29.67;26.60;;;;;;;;;;5036547;28;20887;-82
2023/09/12 13:55:47;;;;;;;28.33;25.43;;;;;;;;;;5043279;28;20997;-81
2023/09/12 13:58:14;;;;;;;29.83;27.13;;;;;;;;;;5053612;28;20472;-81
2023/09/12 14:00:41;;;;;;;25.60;23.00;;;;;;;;;;5047100;28;20467;-82
2023/09/12 14:03:08;;;;;;;31.93;28.67;;;;;;;;;;5039660;28;20465;-81
2023/09/12 14:05:34;;;;;;;32.17;28.97;;;;;;;;;;5037471;28;20471;-81
2023/09/12 14:08:01;;;;;;;31.67;28.27;;;;;;;;;;5045828;28;20476;-81
2023/09/12 14:10:27;;;;;;;29.93;26.83;;;;;;;;;;5041581;28;20467;-81
2023/09/12 14:12:54;;;;;;;29.53;26.53;;;;;;;;;;5044915;28;20470;-81
2023/09/12 14:15:20;;;;;;;27.70;24.97;;;;;;;;;;5046356;28;21746;-82